Eckley, Colorado
Current Conditions -  °F | °C
As of 9:55 PM on Tuesday 21 Oct 2014 (Local Time) from K2V5 Reporting Station
Clear Clear  
Wind Chill: 64°   Ceiling: Unl
Heat Index: 64°   Visibility: 10mi
Dew Point: 44°   Wind: 16mph
Humidity: 48%   Direction: 160°SSE
Pressure: 29.91"   Gusts: 23mph
Location:  40.11°N, 102.49°W
Report Text: K2V5 220355Z AUTO 16014G20KT 10SM CLR 18/07 A2991 RMK AO2 T01770065
Loading
Personal Weather Stations






























Interactive Weather Map
Tropical Storm Tracking
New forecast layout! Learn more

10-Day Weather Forecast

Advertisements
Track Severe Weather on mobile